Latest Weather Observations for Paraburdoo

IDW60801

Issued at 12:05 pm WST Sunday 26 October 2014 (issued every 30 minutes, with the page automatically refreshed every 10 minutes)

About weather observations | Map of weather stations | Latest weather observations for WA | Other Formats
Station Details ID: 007185 Name: PARABURDOO AERO Lat: -23.17 Lon: 117.75 Height: 423.7 m
Data from the previous 72 hours. | See also: Recent months at Paraburdoo
Date/Time
WST
Temp
°C
App
Temp
°C
Dew
Point
Rel
Hum
%
Delta-T
°C
Wind Press
QNH
hPa
Press
MSL
hPa
Rain
since 9 am
mm
Dir
 
Spd
km/h
Gust
km/h
Spd
kts
Gust
kts
26/12:00pm 34.2 28.6 -3.2 9 17.8 S 17 28 9 15 1016.4 1013.7 0.0
26/11:30am 34.4 28.2 -3.0 9 17.8 SE 20 24 11 13 1016.7 1014.0 0.0
26/11:00am 33.1 27.7 -1.3 11 16.7 S 17 30 9 16 1017.0 1014.3 0.0
26/10:30am 32.3 27.2 -1.9 11 16.4 S 15 22 8 12 1017.3 1014.7 0.0
26/10:00am 32.6 28.1 -0.5 12 16.2 S 13 28 7 15 1017.8 1015.2 0.0
26/09:30am 31.4 26.7 0.7 14 15.3 SSW 15 22 8 12 1017.7 1015.1 0.0
26/09:00am 30.5 27.3 1.0 15 14.6 SSE 7 11 4 6 1017.7 1015.1 0.0
26/08:30am 30.0 26.5 1.5 16 14.2 SE 9 13 5 7 1017.9 1015.3 0.0
26/08:00am 28.9 25.9 0.6 16 13.8 ENE 6 11 3 6 1017.8 1015.2 0.0
26/07:30am 27.6 25.5 1.9 19 12.7 E 2 9 1 5 1017.8 1015.2 0.0
26/07:00am 24.2 21.4 2.9 25 10.5 NE 7 9 4 5 1017.8 1015.2 0.0
26/06:30am 21.6 18.6 2.3 28 9.2 NE 7 9 4 5 1017.7 1015.1 0.0
26/06:00am 19.0 15.9 1.5 31 8.1 NE 7 9 4 5 1017.3 1014.7 0.0
26/05:30am 19.1 15.7 1.6 31 8.1 NNE 9 11 5 6 1016.9 1014.2 0.0
26/05:00am 18.5 15.5 0.6 30 8.1 E 6 7 3 4 1016.7 1014.0 0.0
26/04:30am 19.0 15.9 1.1 30 8.2 ENE 7 9 4 5 1016.4 1013.7 0.0
26/04:00am 19.3 16.8 1.3 30 8.3 ENE 4 9 2 5 1016.3 1013.6 0.0
26/03:30am 20.1 17.7 2.0 30 8.5 NNE 4 9 2 5 1016.2 1013.5 0.0
26/03:00am 20.9 17.2 2.2 29 8.9 NE 11 13 6 7 1016.2 1013.5 0.0
26/02:30am 21.4 18.1 2.2 28 9.2 NNE 9 13 5 7 1016.1 1013.4 0.0
26/02:00am 22.5 19.3 3.1 28 9.5 NNE 9 11 5 6 1015.9 1013.3 0.0
26/01:30am 23.0 21.5 3.0 27 9.8 CALM 0 0 0 0 1016.3 1013.6 0.0
26/01:00am 25.3 22.8 3.9 25 10.8 SW 6 11 3 6 1016.5 1013.8 0.0
26/12:30am 25.6 23.9 4.1 25 10.9 SE 2 7 1 4 1016.8 1014.1 0.0
26/12:00am 26.3 24.5 3.5 23 11.5 WSW 2 6 1 3 1017.0 1014.3 0.0
 
Date/Time
WST
Temp
°C
App
Temp
°C
Dew
Point
Rel
Hum
%
Delta-T
°C
Wind Press
QNH
hPa
Press
MSL
hPa
Rain
since 9 am
mm
Dir
 
Spd
km/h
Gust
km/h
Spd
kts
Gust
kts
25/11:30pm 28.3 24.9 3.9 21 12.6 SW 11 17 6 9 1017.1 1014.4 0.0
25/11:00pm 28.7 25.2 3.5 20 12.9 SW 11 15 6 8 1017.2 1014.6 0.0
25/10:30pm 29.3 25.4 3.3 19 13.3 SW 13 19 7 10 1017.2 1014.6 0.0
25/10:00pm 29.9 25.7 3.8 19 13.5 SW 15 20 8 11 1017.3 1014.7 0.0
25/09:30pm 30.4 25.4 3.4 18 14.0 SW 19 26 10 14 1017.4 1014.8 0.0
25/09:00pm 30.8 26.4 2.9 17 14.3 SW 15 20 8 11 1017.4 1014.8 0.0
25/08:30pm 31.5 26.3 2.7 16 14.8 SW 19 30 10 16 1017.4 1014.8 0.0
25/08:00pm 32.0 26.9 3.1 16 15.0 SSW 19 26 10 14 1017.2 1014.6 0.0
25/07:30pm 32.7 27.0 2.7 15 15.6 SSW 22 33 12 18 1017.0 1014.3 0.0
25/07:00pm 33.2 26.8 1.1 13 16.2 SW 24 35 13 19 1016.6 1013.9 0.0
25/06:30pm 33.8 27.3 0.5 12 16.8 SW 24 33 13 18 1016.3 1013.6 0.0
25/06:00pm 34.6 27.7 -0.1 11 17.4 SW 26 35 14 19 1015.8 1013.2 0.0
25/05:30pm 35.6 29.0 -0.7 10 18.1 SW 24 39 13 21 1015.4 1012.8 0.0
25/05:00pm 36.4 29.6 -1.5 9 18.8 WSW 24 33 13 18 1015.1 1012.5 0.0
25/04:30pm 36.9 30.2 -1.1 9 19.0 WSW 24 43 13 23 1015.2 1012.6 0.0
25/04:00pm 37.5 29.9 -2.3 8 19.6 WSW 28 43 15 23 1015.2 1012.6 0.0
25/03:30pm 37.1 30.2 -2.6 8 19.4 SW 24 41 13 22 1015.0 1012.3 0.0
25/03:14pm 37.3 29.7 -2.4 8 19.5 WSW 28 46 15 25 1015.0 1012.3 0.0
25/03:00pm 37.8 31.7 -2.1 8 19.8 W 20 30 11 16 1015.1 1012.5 0.0
25/02:30pm 36.9 30.8 -2.7 8 19.3 S 20 26 11 14 1015.2 1012.6 0.0
25/02:00pm 36.7 29.4 -2.9 8 19.2 W 26 37 14 20 1015.6 1013.0 0.0
25/01:30pm 36.2 28.5 -3.3 8 19.0 WSW 28 44 15 24 1015.9 1013.3 0.0
25/01:00pm 36.2 29.2 -3.3 8 19.0 SW 24 35 13 19 1016.2 1013.5 0.0
25/12:30pm 37.1 31.0 -2.6 8 19.4 SW 20 30 11 16 1016.5 1013.8 0.0
25/12:00pm 35.8 29.4 -2.0 9 18.5 W 22 30 12 16 1016.8 1014.1 0.0
25/11:30am 35.2 29.1 -2.4 9 18.2 SW 20 28 11 15 1017.0 1014.3 0.0
25/11:00am 34.5 28.3 -2.9 9 17.9 SW 20 22 11 12 1017.3 1014.7 0.0
25/10:30am 33.8 28.7 -2.0 10 17.3 WNW 15 24 8 13 1017.5 1014.9 0.0
25/10:00am 32.9 28.5 -2.7 10 16.9 W 11 19 6 10 1017.7 1015.1 0.0
25/09:30am 31.8 27.8 -2.3 11 16.2 W 9 13 5 7 1018.0 1015.4 0.0
25/09:00am 31.1 27.9 0.5 14 15.1 SW 7 13 4 7 1018.0 1015.4 0.0
25/08:30am 29.0 25.8 0.7 16 13.9 WNW 7 11 4 6 1017.9 1015.3 0.0
25/08:00am 27.8 25.3 1.3 18 13.0 SW 4 7 2 4 1017.9 1015.3 0.0
25/07:30am 26.6 23.6 1.8 20 12.2 WSW 7 9 4 5 1017.9 1015.3 0.0
25/07:00am 24.7 23.0 1.6 22 11.1 CALM 0 2 0 1 1017.6 1015.0 0.0
25/06:30am 22.7 19.7 1.7 25 10.0 NNE 7 9 4 5 1017.4 1014.8 0.0
25/06:00am 19.8 16.2 0.3 27 8.8 NE 9 9 5 5 1017.1 1014.4 0.0
25/05:30am 19.0 16.9 -0.9 26 8.8 CALM 0 6 0 3 1016.7 1014.0 0.0
25/05:00am 20.0 16.3 -0.1 26 9.1 NE 9 11 5 6 1016.6 1013.9 0.0
25/04:30am 20.0 16.9 -0.1 26 9.1 ENE 6 9 3 5 1016.3 1013.6 0.0
25/04:00am 20.5 18.6 0.4 26 9.2 CALM 0 7 0 4 1016.2 1013.5 0.0
25/03:30am 21.9 20.1 1.0 25 9.8 CALM 0 0 0 0 1015.6 1013.0 0.0
25/03:00am 21.9 20.1 1.0 25 9.8 CALM 0 0 0 0 1015.4 1012.8 0.0
25/02:30am 23.2 21.2 -0.3 21 10.8 CALM 0 0 0 0 1015.2 1012.6 0.0
25/02:00am 25.3 23.6 2.1 22 11.4 CALM 0 0 0 0 1015.2 1012.6 0.0
25/01:30am 25.2 22.4 2.0 22 11.3 W 6 6 3 3 1015.1 1012.5 0.0
25/01:00am 26.1 23.3 2.1 21 11.8 W 6 7 3 4 1015.3 1012.7 0.0
25/12:30am 27.4 24.2 1.0 18 12.9 W 7 11 4 6 1015.5 1012.9 0.0
25/12:00am 29.5 24.8 1.1 16 14.0 SW 15 22 8 12 1015.6 1013.0 0.0
 
Date/Time
WST
Temp
°C
App
Temp
°C
Dew
Point
Rel
Hum
%
Delta-T
°C
Wind Press
QNH
hPa
Press
MSL
hPa
Rain
since 9 am
mm
Dir
 
Spd
km/h
Gust
km/h
Spd
kts
Gust
kts
24/11:30pm 29.9 24.9 1.4 16 14.2 WSW 17 30 9 16 1015.6 1013.0 0.0
24/11:00pm 30.1 25.5 1.5 16 14.3 WSW 15 19 8 10 1015.5 1012.9 0.0
24/10:30pm 30.0 26.2 1.5 16 14.2 WSW 11 13 6 7 1015.4 1012.8 0.0
24/10:00pm 31.1 26.9 1.4 15 14.9 WSW 13 20 7 11 1015.2 1012.6 0.0
24/09:30pm 31.5 26.8 0.8 14 15.3 WSW 15 19 8 10 1014.8 1012.1 0.0
24/09:00pm 32.2 27.4 0.3 13 15.8 WSW 15 20 8 11 1014.4 1011.7 0.0
24/08:30pm 32.3 27.0 -0.7 12 16.1 W 17 20 9 11 1013.9 1011.2 0.0
24/08:00pm 33.2 28.0 0.0 12 16.5 W 17 20 9 11 1013.6 1010.9 0.0
24/07:30pm 33.9 28.0 -0.7 11 17.1 W 20 24 11 13 1013.0 1010.4 0.0
24/07:00pm 34.4 29.7 -1.6 10 17.6 WSW 13 19 7 10 1012.7 1010.0 0.0
24/06:30pm 35.3 29.6 -0.9 10 18.0 WSW 19 30 10 16 1012.3 1009.6 0.0
24/06:00pm 36.1 29.9 -0.3 10 18.4 WSW 22 32 12 17 1012.0 1009.3 0.0
24/05:30pm 36.9 29.8 -1.1 9 19.0 WSW 26 33 14 18 1011.7 1009.0 0.0
24/05:00pm 37.6 31.0 -0.6 9 19.4 WSW 24 30 13 16 1011.4 1008.7 0.0
24/04:30pm 37.9 31.3 -0.4 9 19.5 WSW 24 39 13 21 1011.2 1008.5 0.0
24/04:00pm 37.7 31.5 -0.6 9 19.4 SW 22 33 12 18 1011.4 1008.7 0.0
24/03:30pm 39.0 31.9 -1.2 8 20.3 W 26 35 14 19 1011.4 1008.7 0.0
24/03:00pm 38.4 31.9 0.0 9 19.7 WNW 24 35 13 19 1011.7 1009.0 0.0
24/02:30pm 39.0 32.3 -1.2 8 20.3 WSW 24 37 13 20 1011.9 1009.2 0.0
24/02:00pm 39.0 34.6 0.4 9 20.0 N 13 30 7 16 1012.1 1009.4 0.0
24/01:30pm 38.1 31.5 -0.3 9 19.6 WNW 24 35 13 19 1012.6 1009.9 0.0
24/01:00pm 37.7 33.5 -0.6 9 19.4 NNW 11 20 6 11 1013.0 1010.4 0.0
24/12:30pm 38.4 32.6 0.0 9 19.7 W 20 28 11 15 1013.3 1010.7 0.0
24/12:00pm 37.4 31.5 -0.8 9 19.3 WSW 20 28 11 15 1013.9 1011.2 0.0
24/11:30am 36.6 32.9 0.1 10 18.6 NNE 9 20 5 11 1014.2 1011.5 0.0
24/11:00am 35.2 30.8 0.3 11 17.7 S 13 22 7 12 1014.5 1011.8 0.0
24/10:30am 35.3 31.7 0.4 11 17.7 S 9 15 5 8 1014.9 1012.2 0.0
24/10:00am 34.6 32.0 1.1 12 17.1 NE 4 11 2 6 1015.2 1012.6 0.0
24/09:30am 34.3 30.7 0.8 12 17.0 N 9 13 5 7 1015.4 1012.8 0.0
24/09:00am 33.1 29.0 2.0 14 16.0 ENE 13 20 7 11 1015.6 1013.0 0.0
24/08:30am 31.8 27.7 2.0 15 15.2 ENE 13 19 7 10 1015.6 1013.0 0.0
24/08:00am 30.1 25.3 2.4 17 14.1 NE 17 19 9 10 1015.6 1013.0 0.0
24/07:30am 27.7 23.8 3.4 21 12.4 NE 13 17 7 9 1015.5 1012.9 0.0
24/07:00am 24.7 20.8 3.4 25 10.6 NE 13 15 7 8 1015.5 1012.9 0.0
24/06:30am 22.0 19.2 3.2 29 9.2 NE 7 11 4 6 1015.3 1012.7 0.0
24/06:00am 19.2 16.2 1.7 31 8.1 ENE 7 11 4 6 1015.3 1012.7 0.0
24/05:30am 19.0 15.5 1.1 30 8.2 NE 9 11 5 6 1014.8 1012.1 0.0
24/05:00am 19.2 15.8 1.7 31 8.1 ENE 9 9 5 5 1014.6 1011.9 0.0
24/04:30am 19.4 16.0 1.9 31 8.2 NE 9 11 5 6 1014.7 1012.0 0.0
24/04:00am 19.5 16.0 1.0 29 8.5 ENE 9 11 5 6 1014.5 1011.8 0.0
24/03:30am 20.0 18.2 1.4 29 8.6 CALM 0 0 0 0 1014.3 1011.6 0.0
24/03:00am 20.4 18.7 1.8 29 8.7 CALM 0 0 0 0 1014.3 1011.6 0.0
24/02:30am 20.8 19.1 1.6 28 9.0 CALM 0 4 0 2 1014.4 1011.7 0.0
24/02:00am 21.9 18.5 2.1 27 9.5 E 9 11 5 6 1014.5 1011.8 0.0
24/01:30am 22.2 19.2 2.3 27 9.6 ENE 7 9 4 5 1014.7 1012.0 0.0
24/01:00am 22.8 19.5 2.3 26 9.9 NNE 9 11 5 6 1014.8 1012.1 0.0
24/12:30am 23.3 20.6 2.7 26 10.1 N 6 7 3 4 1015.0 1012.3 0.0
24/12:00am 23.9 20.9 2.1 24 10.6 NNE 7 13 4 7 1015.3 1012.7 0.0
 
Date/Time
WST
Temp
°C
App
Temp
°C
Dew
Point
Rel
Hum
%
Delta-T
°C
Wind Press
QNH
hPa
Press
MSL
hPa
Rain
since 9 am
mm
Dir
 
Spd
km/h
Gust
km/h
Spd
kts
Gust
kts
23/11:30pm 25.3 22.7 3.3 24 11.0 NNE 6 7 3 4 1015.4 1012.8 0.0
23/11:00pm 24.9 23.2 1.7 22 11.2 CALM 0 0 0 0 1015.5 1012.9 0.0
23/10:30pm 27.9 25.6 2.9 20 12.6 S 4 6 2 3 1015.6 1013.0 0.0
23/10:00pm 29.6 26.0 2.8 18 13.7 SW 11 15 6 8 1015.5 1012.9 0.0
23/09:30pm 30.0 26.0 3.1 18 13.8 SW 13 17 7 9 1015.4 1012.8 0.0
23/09:00pm 30.4 26.7 2.6 17 14.2 SW 11 17 6 9 1015.2 1012.6 0.0
23/08:30pm 31.2 26.7 2.4 16 14.7 SW 15 22 8 12 1014.9 1012.2 0.0
23/08:00pm 31.9 27.6 3.0 16 15.0 SW 15 20 8 11 1014.7 1012.0 0.0
23/07:30pm 32.1 28.7 4.0 17 14.8 WSW 11 13 6 7 1014.3 1011.6 0.0
23/07:00pm 32.6 28.7 3.5 16 15.3 WSW 13 17 7 9 1014.0 1011.3 0.0
23/06:30pm 33.3 30.7 4.1 16 15.5 SW 7 11 4 6 1013.7 1011.0 0.0
23/06:00pm 34.0 31.1 4.6 16 15.8 SW 9 13 5 7 1013.3 1010.7 0.0
23/05:30pm 34.6 29.5 4.2 15 16.3 WSW 20 26 11 14 1013.1 1010.5 0.0
23/05:00pm 34.4 31.4 4.0 15 16.3 SSW 9 15 5 8 1013.0 1010.4 0.0
23/04:30pm 34.9 29.5 4.4 15 16.5 W 22 32 12 17 1013.0 1010.4 0.0
23/04:00pm 35.4 29.9 3.8 14 16.9 WSW 22 33 12 18 1013.2 1010.6 0.0
23/03:30pm 35.6 31.4 4.0 14 17.0 WNW 15 20 8 11 1013.1 1010.5 0.0
23/03:00pm 35.0 31.3 4.5 15 16.5 WNW 13 22 7 12 1013.3 1010.7 0.0
23/02:30pm 35.4 31.4 4.8 15 16.7 WSW 15 20 8 11 1013.7 1011.0 0.0
23/02:00pm 35.1 30.7 4.6 15 16.5 NW 17 19 9 10 1013.9 1011.2 0.0
23/01:30pm 34.5 31.7 5.0 16 16.0 WSW 9 32 5 17 1014.2 1011.5 0.0
23/01:00pm 33.7 29.6 6.1 18 15.2 SSW 17 24 9 13 1014.5 1011.8 0.0
23/12:30pm 33.6 29.8 6.0 18 15.2 SW 15 28 8 15 1015.0 1012.3 0.0

Other Formats:

Comma delimited format used in spreadsheet applications
http://www.bom.gov.au/fwo/IDW60801/IDW60801.94316.axf

JavaScript Object Notation format (JSON) in row-major order
http://www.bom.gov.au/fwo/IDW60801/IDW60801.94316.json